Time;durP1;ratioP1;P1;durP2;ratioP2;P2;SDS_P1;SDS_P2;PMS_P1;PMS_P2;Temp;Humidity;BMP_temperature;BMP_pressure;BME280_temperature;BME280_humidity;BME280_pressure;Samples;Min_cycle;Max_cycle;Signal;HPM_P1;HPM_P2
2023/04/08 00:00:50;;;;;;;0.10;0.10;;;8.90;99.90;;;;;;5095363;28;20036;-72
2023/04/08 00:03:16;;;;;;;0.55;0.55;;;8.90;99.90;;;;;;5095312;28;20028;-71
2023/04/08 00:05:41;;;;;;;0.10;0.10;;;8.90;99.90;;;;;;5095228;28;20032;-70
2023/04/08 00:08:07;;;;;;;6.30;2.92;;;9.00;99.90;;;;;;5094905;28;20139;-70
2023/04/08 00:10:33;;;;;;;0.30;0.30;;;9.00;99.90;;;;;;5083432;28;20036;-69
2023/04/08 00:12:59;;;;;;;1.17;0.82;;;8.90;99.90;;;;;;5095084;28;20021;-70
2023/04/08 00:15:26;;;;;;;0.20;0.20;;;8.90;99.90;;;;;;5095242;28;20062;-69
2023/04/08 00:17:53;;;;;;;2.30;1.92;;;8.90;99.90;;;;;;5093605;28;20392;-70
2023/04/08 00:20:20;;;;;;;0.47;0.47;;;8.90;99.90;;;;;;5094990;28;20031;-70
2023/04/08 00:22:45;;;;;;;0.10;0.10;;;8.90;99.90;;;;;;5095287;28;20115;-70
2023/04/08 00:25:11;;;;;;;0.47;0.47;;;8.90;99.90;;;;;;5094461;28;20218;-70
2023/04/08 00:27:37;;;;;;;0.22;0.22;;;8.80;99.90;;;;;;5094981;28;20028;-70
2023/04/08 00:30:03;;;;;;;0.98;0.75;;;8.80;99.90;;;;;;5094558;28;20028;-71
2023/04/08 00:32:29;;;;;;;0.38;0.38;;;8.90;99.90;;;;;;5094896;28;20039;-70
2023/04/08 00:34:55;;;;;;;0.85;0.85;;;8.80;99.90;;;;;;5094692;28;20036;-70
2023/04/08 00:37:22;;;;;;;0.10;0.10;;;8.80;99.90;;;;;;5093170;28;20024;-71
2023/04/08 00:39:48;;;;;;;0.65;0.65;;;8.90;99.90;;;;;;5094513;28;20062;-71
2023/04/08 00:42:13;;;;;;;0.47;0.47;;;8.80;99.90;;;;;;5094383;28;20460;-71
2023/04/08 00:44:39;;;;;;;0.10;0.10;;;8.80;99.90;;;;;;5093396;28;20024;-70
2023/04/08 00:47:05;;;;;;;0.10;0.10;;;9.00;99.90;;;;;;5094124;28;20024;-71
2023/04/08 00:49:31;;;;;;;0.10;0.10;;;9.10;99.90;;;;;;5093272;28;20032;-71
2023/04/08 00:51:58;;;;;;;0.90;0.90;;;9.10;99.90;;;;;;5094094;28;20426;-71
2023/04/08 00:54:24;;;;;;;0.10;0.10;;;9.20;99.90;;;;;;5092639;28;20435;-71
2023/04/08 00:56:50;;;;;;;0.32;0.32;;;9.10;99.90;;;;;;5094202;28;20020;-70
2023/04/08 00:59:16;;;;;;;0.63;0.63;;;9.10;99.90;;;;;;5092947;28;20430;-71
2023/04/08 01:01:54;;;;;;;1.95;1.80;;;9.00;99.90;;;;;;5094091;28;20384;-71
2023/04/08 01:04:54;;;;;;;9.20;1.42;;;8.90;99.90;;;;;;5093225;28;20024;-70
2023/04/08 01:07:27;;;;;;;2.90;1.75;;;8.90;99.90;;;;;;5093787;28;20384;-70
2023/04/08 01:10:01;;;;;;;5.22;1.67;;;8.90;99.90;;;;;;5092695;28;20023;-70
2023/04/08 01:12:29;;;;;;;0.08;0.08;;;8.90;99.90;;;;;;5092698;28;20027;-70
2023/04/08 01:15:14;;;;;;;0.10;0.10;;;9.00;99.90;;;;;;5092626;28;20058;-70
2023/04/08 01:17:42;;;;;;;0.25;0.25;;;9.10;99.90;;;;;;5093921;28;20032;-70
2023/04/08 01:20:08;;;;;;;0.80;0.68;;;9.10;99.90;;;;;;5093783;28;20133;-70
2023/04/08 01:22:54;;;;;;;3.00;1.02;;;9.10;99.90;;;;;;5093827;28;20028;-70
2023/04/08 01:25:28;;;;;;;1.55;1.00;;;9.00;99.90;;;;;;5092430;28;20103;-70
2023/04/08 01:27:57;;;;;;;1.27;1.17;;;9.00;99.90;;;;;;5093829;28;20481;-70
2023/04/08 01:30:24;;;;;;;0.50;0.50;;;9.10;99.90;;;;;;5093507;28;20031;-70
2023/04/08 01:32:53;;;;;;;1.40;1.30;;;9.00;99.90;;;;;;5093718;28;20032;-70
2023/04/08 01:35:21;;;;;;;0.20;0.20;;;9.00;99.90;;;;;;5093720;28;20028;-70
2023/04/08 01:37:50;;;;;;;1.17;0.55;;;9.00;99.90;;;;;;5092283;28;20396;-71
2023/04/08 01:40:18;;;;;;;0.20;0.20;;;9.10;99.90;;;;;;5077770;28;20548;-70
2023/04/08 01:42:48;;;;;;;2.10;1.90;;;9.00;99.90;;;;;;5093620;28;20103;-71
2023/04/08 01:45:15;;;;;;;0.10;0.10;;;9.10;99.90;;;;;;5093382;28;20036;-70
2023/04/08 01:47:43;;;;;;;0.30;0.30;;;9.20;99.90;;;;;;5092057;28;20031;-71
2023/04/08 01:50:12;;;;;;;8.68;1.85;;;9.20;99.90;;;;;;5092031;28;20024;-71
2023/04/08 01:52:40;;;;;;;0.22;0.22;;;9.20;99.90;;;;;;5091672;28;20472;-70
2023/04/08 01:55:06;;;;;;;5.47;2.00;;;9.30;99.90;;;;;;5093313;28;20451;-71
2023/04/08 01:57:36;;;;;;;1.17;0.90;;;9.20;99.90;;;;;;5091831;28;20472;-69
2023/04/08 02:00:08;;;;;;;5.18;2.72;;;9.10;99.90;;;;;;5091902;28;20067;-69
2023/04/08 02:02:48;;;;;;;2.05;1.38;;;9.10;99.90;;;;;;5093217;28;20079;-69
2023/04/08 02:05:14;;;;;;;1.75;1.30;;;9.00;99.90;;;;;;5091587;28;20476;-70
2023/04/08 02:07:40;;;;;;;0.20;0.20;;;9.00;99.90;;;;;;5091694;28;20073;-69
2023/04/08 02:10:06;;;;;;;0.43;0.43;;;9.10;99.90;;;;;;5092977;28;20028;-70
2023/04/08 02:12:33;;;;;;;0.98;0.95;;;9.10;99.90;;;;;;5093192;28;20071;-70
2023/04/08 02:14:59;;;;;;;4.10;2.47;;;9.10;99.90;;;;;;5091337;28;20028;-70
2023/04/08 02:17:45;;;;;;;0.17;0.17;;;9.10;99.90;;;;;;5091742;28;20473;-70
2023/04/08 02:20:23;;;;;;;0.88;0.88;;;9.10;99.90;;;;;;5091086;28;20048;-69
2023/04/08 02:22:51;;;;;;;1.77;1.67;;;9.00;99.90;;;;;;5093053;28;20059;-69
2023/04/08 02:25:22;;;;;;;0.10;0.10;;;9.00;99.90;;;;;;5065067;28;20027;-69
2023/04/08 02:27:51;;;;;;;0.77;0.77;;;9.00;99.90;;;;;;5072660;28;20013;-69
2023/04/08 02:30:18;;;;;;;2.17;1.15;;;9.00;99.90;;;;;;5072561;28;20067;-69
2023/04/08 02:32:47;;;;;;;20.58;4.10;;;9.00;99.90;;;;;;5054877;28;20020;-69
2023/04/08 02:35:15;;;;;;;7.63;1.33;;;9.00;99.90;;;;;;5072237;28;20035;-69
2023/04/08 02:37:41;;;;;;;1.80;1.60;;;9.00;99.90;;;;;;5071092;28;20021;-69
2023/04/08 02:40:30;;;;;;;0.10;0.10;;;8.90;99.90;;;;;;5071121;28;20198;-69
2023/04/08 02:42:57;;;;;;;1.30;1.23;;;9.10;99.90;;;;;;5072380;28;20071;-69
2023/04/08 02:45:34;;;;;;;0.15;0.15;;;9.10;99.90;;;;;;5072371;28;20078;-70
2023/04/08 02:48:00;;;;;;;1.08;0.98;;;9.20;99.90;;;;;;5071051;28;20103;-70
2023/04/08 02:50:26;;;;;;;2.63;1.00;;;9.20;99.90;;;;;;5075823;28;20036;-71
2023/04/08 02:52:52;;;;;;;0.32;0.22;;;9.20;99.90;;;;;;5076401;28;20346;-70
2023/04/08 02:55:18;;;;;;;0.70;0.52;;;9.20;99.90;;;;;;5074982;28;20194;-70
2023/04/08 02:57:45;;;;;;;0.10;0.10;;;9.20;99.90;;;;;;5075051;28;20064;-70
2023/04/08 03:00:12;;;;;;;2.42;1.75;;;9.10;99.90;;;;;;5076103;28;20036;-71
2023/04/08 03:02:37;;;;;;;2.08;1.98;;;9.10;99.90;;;;;;5076534;28;20021;-70
2023/04/08 03:05:04;;;;;;;1.08;1.08;;;9.00;99.90;;;;;;5075602;28;20039;-70
2023/04/08 03:07:30;;;;;;;5.15;3.20;;;9.10;99.90;;;;;;5076029;28;20020;-70
2023/04/08 03:09:56;;;;;;;1.75;1.17;;;9.00;99.90;;;;;;5076146;28;20488;-71
2023/04/08 03:12:22;;;;;;;0.10;0.10;;;8.90;99.90;;;;;;5076214;28;20017;-70
2023/04/08 03:14:49;;;;;;;2.05;1.88;;;8.80;99.90;;;;;;5075736;28;20056;-70
2023/04/08 03:17:15;;;;;;;1.75;1.23;;;8.90;99.90;;;;;;5076087;28;20062;-71
2023/04/08 03:19:41;;;;;;;0.10;0.10;;;8.90;99.90;;;;;;5075623;28;20053;-70
2023/04/08 03:22:08;;;;;;;1.38;1.08;;;8.90;99.90;;;;;;5075945;28;20019;-71
2023/04/08 03:24:34;;;;;;;0.10;0.10;;;9.10;99.90;;;;;;5075631;28;20564;-71
2023/04/08 03:27:00;;;;;;;0.10;0.10;;;9.20;99.90;;;;;;5075645;28;20473;-71
2023/04/08 03:29:26;;;;;;;0.20;0.20;;;9.20;99.90;;;;;;5057960;28;20032;-72
2023/04/08 03:31:52;;;;;;;0.10;0.10;;;9.10;99.90;;;;;;5075438;28;20037;-71
2023/04/08 03:34:17;;;;;;;0.20;0.20;;;9.00;99.90;;;;;;5075506;28;20044;-70
2023/04/08 03:36:43;;;;;;;0.20;0.20;;;9.20;99.90;;;;;;5075628;28;20101;-71
2023/04/08 03:39:09;;;;;;;0.40;0.40;;;9.20;99.90;;;;;;5075444;28;20191;-70
2023/04/08 03:41:35;;;;;;;0.30;0.30;;;9.20;99.90;;;;;;5075503;28;20027;-70
2023/04/08 03:44:01;;;;;;;0.15;0.15;;;9.10;99.90;;;;;;5074277;28;20024;-70
2023/04/08 03:46:26;;;;;;;0.77;0.73;;;9.20;99.90;;;;;;5074952;28;20017;-70
2023/04/08 03:48:52;;;;;;;0.22;0.22;;;9.30;99.90;;;;;;5074001;28;20044;-70
2023/04/08 03:51:18;;;;;;;0.00;0.00;;;9.20;99.90;;;;;;5075242;28;20024;-70
2023/04/08 03:53:44;;;;;;;0.10;0.10;;;9.30;99.90;;;;;;5075537;28;20042;-71
2023/04/08 03:56:09;;;;;;;0.10;0.10;;;9.50;99.90;;;;;;5075071;28;20059;-70
2023/04/08 03:58:35;;;;;;;0.10;0.10;;;9.60;99.90;;;;;;5073912;28;20025;-70
2023/04/08 04:01:01;;;;;;;0.10;0.10;;;9.80;99.90;;;;;;5074176;28;20119;-70
2023/04/08 04:03:27;;;;;;;0.10;0.10;;;9.80;99.90;;;;;;5075110;28;20029;-70
2023/04/08 04:05:52;;;;;;;0.17;0.17;;;10.00;99.90;;;;;;5074825;28;20028;-70
2023/04/08 04:08:18;;;;;;;1.70;1.13;;;10.00;99.90;;;;;;5075005;28;20025;-70
2023/04/08 04:10:44;;;;;;;0.55;0.55;;;9.70;99.90;;;;;;5073552;28;20036;-70
2023/04/08 04:13:10;;;;;;;0.45;0.45;;;9.60;99.90;;;;;;5074419;28;20023;-70
2023/04/08 04:15:39;;;;;;;1.13;1.13;;;9.40;99.90;;;;;;5074507;28;20488;-70
2023/04/08 04:18:06;;;;;;;0.80;0.50;;;9.50;99.90;;;;;;5074685;28;20094;-70
2023/04/08 04:20:32;;;;;;;4.50;1.85;;;9.30;99.90;;;;;;5074663;28;20044;-70
2023/04/08 04:22:57;;;;;;;2.20;2.00;;;9.20;99.90;;;;;;5074647;28;20016;-70
2023/04/08 04:25:23;;;;;;;1.33;1.23;;;9.20;99.90;;;;;;5074580;28;20028;-70
2023/04/08 04:27:49;;;;;;;3.92;0.98;;;9.10;99.90;;;;;;5074783;28;20028;-70
2023/04/08 04:30:15;;;;;;;0.10;0.10;;;9.10;99.90;;;;;;5074115;28;20082;-70
2023/04/08 04:32:41;;;;;;;0.10;0.10;;;9.10;99.90;;;;;;5073367;28;20070;-68
2023/04/08 04:35:09;;;;;;;6.20;1.23;;;9.10;99.90;;;;;;5074449;28;20028;-70
2023/04/08 04:37:35;;;;;;;0.10;0.10;;;9.10;99.90;;;;;;5072780;28;20023;-71
2023/04/08 04:40:02;;;;;;;0.20;0.20;;;9.20;99.90;;;;;;5074462;28;20044;-68
2023/04/08 04:42:27;;;;;;;0.10;0.10;;;9.40;99.90;;;;;;5074122;28;20028;-70
2023/04/08 04:44:53;;;;;;;0.10;0.10;;;9.50;99.90;;;;;;5074090;28;20032;-68
2023/04/08 04:47:19;;;;;;;0.10;0.10;;;9.60;99.90;;;;;;5074071;28;20048;-68
2023/04/08 04:49:45;;;;;;;0.10;0.10;;;9.80;99.90;;;;;;5074087;28;20028;-67
2023/04/08 04:52:11;;;;;;;1.35;1.25;;;9.90;99.90;;;;;;5074086;28;20028;-71
2023/04/08 04:54:36;;;;;;;0.17;0.17;;;9.90;99.90;;;;;;5074209;28;20032;-70
2023/04/08 04:57:02;;;;;;;0.63;0.43;;;10.00;99.90;;;;;;5072851;28;20025;-70
2023/04/08 04:59:28;;;;;;;0.10;0.10;;;9.70;99.90;;;;;;5073636;28;20028;-70
2023/04/08 05:01:56;;;;;;;0.10;0.10;;;9.70;99.90;;;;;;5073735;28;20489;-70
2023/04/08 05:04:23;;;;;;;0.30;0.30;;;9.70;99.90;;;;;;5073848;28;20066;-70
2023/04/08 05:06:49;;;;;;;0.10;0.10;;;9.80;99.90;;;;;;5073927;28;20028;-70
2023/04/08 05:09:14;;;;;;;0.25;0.25;;;9.80;99.90;;;;;;5074268;28;20025;-70
2023/04/08 05:11:40;;;;;;;0.68;0.68;;;9.90;99.90;;;;;;5073010;28;20473;-70
2023/04/08 05:14:06;;;;;;;0.00;0.00;;;9.80;99.90;;;;;;5073344;28;20071;-70
2023/04/08 05:16:32;;;;;;;0.10;0.10;;;9.80;99.90;;;;;;5073476;28;20349;-70
2023/04/08 05:18:58;;;;;;;0.80;0.80;;;9.90;99.90;;;;;;5073905;28;20043;-70
2023/04/08 05:21:25;;;;;;;0.20;0.20;;;10.00;99.90;;;;;;5072472;28;20488;-70
2023/04/08 05:23:52;;;;;;;0.08;0.08;;;10.00;99.90;;;;;;5073615;28;20034;-70
2023/04/08 05:26:21;;;;;;;1.65;1.00;;;10.20;99.90;;;;;;5072127;28;20048;-70
2023/04/08 05:28:48;;;;;;;8.35;2.35;;;10.10;99.90;;;;;;5073099;28;20039;-70
2023/04/08 05:31:20;;;;;;;3.00;1.55;;;10.20;99.90;;;;;;5071992;28;20021;-70
2023/04/08 05:33:46;;;;;;;9.02;0.98;;;9.90;99.90;;;;;;5072689;28;20119;-70
2023/04/08 05:36:12;;;;;;;0.52;0.52;;;9.80;99.90;;;;;;5072928;28;20036;-70
2023/04/08 05:38:39;;;;;;;0.00;0.00;;;9.70;99.90;;;;;;5072660;28;20043;-71
2023/04/08 05:41:05;;;;;;;0.10;0.10;;;9.90;99.90;;;;;;5073145;28;20050;-71
2023/04/08 05:43:34;;;;;;;0.10;0.10;;;10.00;99.90;;;;;;5072672;28;20195;-70
2023/04/08 05:46:04;;;;;;;0.10;0.10;;;10.20;99.90;;;;;;5073235;28;20085;-70
2023/04/08 05:48:30;;;;;;;0.10;0.10;;;10.10;99.90;;;;;;5072965;28;20085;-70
2023/04/08 05:50:55;;;;;;;2.45;0.52;;;10.00;99.90;;;;;;5068059;28;20376;-70
2023/04/08 05:53:22;;;;;;;0.75;0.75;;;10.00;99.90;;;;;;5066988;28;20032;-71
2023/04/08 05:55:48;;;;;;;0.93;0.93;;;9.70;99.90;;;;;;5077813;28;20025;-70
2023/04/08 05:58:14;;;;;;;3.83;2.92;;;9.40;99.90;;;;;;5079267;28;20055;-70
2023/04/08 06:00:40;;;;;;;4.18;2.30;;;9.40;99.90;;;;;;5074592;28;20551;-71
2023/04/08 06:03:06;;;;;;;14.23;3.88;;;9.20;99.90;;;;;;5075738;28;20108;-70
2023/04/08 06:05:31;;;;;;;1.33;1.33;;;9.20;99.90;;;;;;5072855;28;20036;-71
2023/04/08 06:07:57;;;;;;;1.90;1.52;;;9.30;99.90;;;;;;5080451;28;20517;-70
2023/04/08 06:10:23;;;;;;;2.25;2.15;;;9.30;99.90;;;;;;5081739;28;20043;-71
2023/04/08 06:12:49;;;;;;;0.43;0.32;;;9.30;99.90;;;;;;5068899;28;20024;-70
2023/04/08 06:15:15;;;;;;;1.30;1.10;;;9.30;99.90;;;;;;5075081;28;20043;-70
2023/04/08 06:17:41;;;;;;;1.00;1.00;;;9.30;99.90;;;;;;5070537;28;20013;-70
2023/04/08 06:20:10;;;;;;;13.57;5.35;;;9.20;99.90;;;;;;5081159;28;20460;-70
2023/04/08 06:22:37;;;;;;;0.10;0.10;;;9.20;99.90;;;;;;5077186;28;20021;-69
2023/04/08 06:25:03;;;;;;;2.50;2.30;;;9.20;99.90;;;;;;5072309;28;20051;-71
2023/04/08 06:27:29;;;;;;;1.65;0.98;;;9.50;99.90;;;;;;5073530;28;20024;-70
2023/04/08 06:29:56;;;;;;;3.40;1.90;;;9.50;99.90;;;;;;5079787;28;20111;-70
2023/04/08 06:32:21;;;;;;;1.33;1.23;;;9.60;99.90;;;;;;5064398;28;20487;-71
2023/04/08 06:34:48;;;;;;;1.02;0.98;;;9.50;99.90;;;;;;5086748;28;20031;-70
2023/04/08 06:37:13;;;;;;;1.88;1.42;;;9.50;99.90;;;;;;5078433;28;20028;-69
2023/04/08 06:39:39;;;;;;;0.20;0.20;;;9.50;99.90;;;;;;5067229;28;20056;-70
2023/04/08 06:42:05;;;;;;;0.30;0.30;;;9.50;99.90;;;;;;5059209;28;20056;-70
2023/04/08 06:44:55;;;;;;;4.15;3.20;;;9.50;99.90;;;;;;5055631;28;20117;-70
2023/04/08 06:47:21;;;;;;;2.15;1.23;;;9.40;99.90;;;;;;5078372;28;20037;-70
2023/04/08 06:49:47;;;;;;;0.88;0.52;;;9.50;99.90;;;;;;5071984;28;20029;-70
2023/04/08 06:52:13;;;;;;;2.53;2.33;;;9.50;99.90;;;;;;5064142;28;21141;-70
2023/04/08 06:54:38;;;;;;;0.20;0.20;;;9.40;99.90;;;;;;5063790;28;20059;-70
2023/04/08 06:57:04;;;;;;;0.25;0.25;;;9.50;99.90;;;;;;5067375;28;20028;-70
2023/04/08 06:59:30;;;;;;;2.90;0.80;;;9.50;99.90;;;;;;5073807;28;20045;-71
2023/04/08 07:01:55;;;;;;;0.30;0.30;;;9.60;99.90;;;;;;5059072;28;20021;-70
2023/04/08 07:04:21;;;;;;;0.30;0.30;;;9.50;99.90;;;;;;5070835;28;20468;-70
2023/04/08 07:06:47;;;;;;;0.20;0.20;;;9.60;99.90;;;;;;5078624;28;20510;-69
2023/04/08 07:09:13;;;;;;;0.98;0.98;;;9.60;99.90;;;;;;5082731;28;20035;-70
2023/04/08 07:11:38;;;;;;;0.13;0.13;;;9.60;99.90;;;;;;5068875;28;20021;-70
2023/04/08 07:14:04;;;;;;;0.10;0.10;;;9.80;99.90;;;;;;5066250;28;20592;-71
2023/04/08 07:16:30;;;;;;;0.10;0.10;;;9.80;99.90;;;;;;5064017;28;20028;-72
2023/04/08 07:18:56;;;;;;;0.10;0.10;;;10.10;99.90;;;;;;5070081;28;20494;-71
2023/04/08 07:21:22;;;;;;;9.73;3.20;;;10.30;99.90;;;;;;5073776;28;20020;-71
2023/04/08 07:23:48;;;;;;;17.83;1.65;;;10.00;99.90;;;;;;5070846;28;20512;-71
2023/04/08 07:26:13;;;;;;;4.03;2.45;;;10.00;99.90;;;;;;5073926;28;20390;-70
2023/04/08 07:28:39;;;;;;;0.30;0.30;;;9.80;99.90;;;;;;5073626;28;20456;-70
2023/04/08 07:31:14;;;;;;;6.28;2.17;;;9.90;99.90;;;;;;5069810;28;20028;-70
2023/04/08 07:33:41;;;;;;;1.73;1.60;;;9.70;99.90;;;;;;5068276;28;20477;-70
2023/04/08 07:36:09;;;;;;;0.88;0.88;;;9.60;99.90;;;;;;5077002;28;20388;-70
2023/04/08 07:38:35;;;;;;;0.50;0.50;;;9.60;99.90;;;;;;5078165;28;20123;-71
2023/04/08 07:41:01;;;;;;;2.75;2.10;;;9.70;99.90;;;;;;5076215;28;20112;-70
2023/04/08 07:43:26;;;;;;;29.35;2.47;;;9.70;99.90;;;;;;5073110;28;20021;-70
2023/04/08 07:45:52;;;;;;;1.52;1.42;;;9.60;99.90;;;;;;5075616;28;20439;-70
2023/04/08 07:48:18;;;;;;;0.47;0.47;;;9.60;99.90;;;;;;5073061;28;20021;-71
2023/04/08 07:50:45;;;;;;;0.45;0.45;;;9.60;99.90;;;;;;5071931;28;20024;-70
2023/04/08 07:53:11;;;;;;;1.27;0.43;;;9.60;99.90;;;;;;5072288;28;20029;-70
2023/04/08 07:55:39;;;;;;;0.77;0.77;;;9.60;99.90;;;;;;5071125;28;20025;-71
2023/04/08 07:58:04;;;;;;;3.50;2.17;;;9.60;99.90;;;;;;5067515;28;20445;-72
2023/04/08 08:00:32;;;;;;;5.70;2.95;;;9.60;99.90;;;;;;5068595;28;20066;-70
2023/04/08 08:02:57;;;;;;;1.10;0.73;;;9.60;99.90;;;;;;5071302;28;20108;-71
2023/04/08 08:05:23;;;;;;;2.88;1.52;;;9.70;99.90;;;;;;5072564;28;20150;-70
2023/04/08 08:07:49;;;;;;;0.50;0.50;;;9.80;99.90;;;;;;5072475;28;20582;-70
2023/04/08 08:10:15;;;;;;;3.42;1.63;;;9.80;99.90;;;;;;5074810;28;20426;-70
2023/04/08 08:12:41;;;;;;;1.15;1.05;;;9.80;99.90;;;;;;5074192;28;20472;-70
2023/04/08 08:15:07;;;;;;;1.02;1.00;;;9.70;99.90;;;;;;5070349;28;20056;-71
2023/04/08 08:17:33;;;;;;;0.75;0.73;;;9.80;99.90;;;;;;5073221;28;20047;-71
2023/04/08 08:19:59;;;;;;;3.80;1.20;;;9.70;99.90;;;;;;5070954;28;20041;-70
2023/04/08 08:22:26;;;;;;;2.20;2.00;;;9.70;99.90;;;;;;5075776;28;20128;-70
2023/04/08 08:24:58;;;;;;;0.63;0.63;;;9.80;99.90;;;;;;5071740;28;20036;-71
2023/04/08 08:27:24;;;;;;;0.38;0.38;;;9.80;99.90;;;;;;5064273;28;20024;-70
2023/04/08 08:29:51;;;;;;;2.33;0.93;;;10.10;99.90;;;;;;5073425;28;20090;-71
2023/04/08 08:32:17;;;;;;;0.15;0.15;;;10.10;99.90;;;;;;5078340;28;20024;-71
2023/04/08 08:34:42;;;;;;;1.25;0.65;;;10.30;99.90;;;;;;5076541;28;20032;-70
2023/04/08 08:37:11;;;;;;;0.17;0.17;;;10.40;99.90;;;;;;5075230;28;20078;-70
2023/04/08 08:39:40;;;;;;;1.65;1.55;;;10.40;99.90;;;;;;5076280;28;20045;-71
2023/04/08 08:42:23;;;;;;;0.10;0.10;;;10.60;99.90;;;;;;5069695;28;20028;-70
2023/04/08 08:44:49;;;;;;;0.65;0.65;;;10.40;99.90;;;;;;5078065;28;20037;-70
2023/04/08 08:47:18;;;;;;;0.10;0.10;;;10.30;99.90;;;;;;5073851;28;20027;-70
2023/04/08 08:49:44;;;;;;;0.20;0.20;;;10.60;99.90;;;;;;5080463;28;20031;-70
2023/04/08 08:52:10;;;;;;;0.68;0.68;;;10.70;99.90;;;;;;5072082;28;20033;-70
2023/04/08 08:54:37;;;;;;;6.75;2.75;;;10.80;99.90;;;;;;5076940;28;20031;-70
2023/04/08 08:57:03;;;;;;;0.20;0.20;;;10.70;99.90;;;;;;5076378;28;20024;-70
2023/04/08 08:59:28;;;;;;;0.10;0.10;;;10.40;99.90;;;;;;5077035;28;20174;-70
2023/04/08 09:01:54;;;;;;;0.10;0.10;;;10.40;99.90;;;;;;5075534;28;20111;-70
2023/04/08 09:04:21;;;;;;;5.25;1.73;;;10.50;99.90;;;;;;5075170;28;20024;-70
2023/04/08 09:06:49;;;;;;;1.65;1.30;;;10.60;99.90;;;;;;5076178;28;20051;-70
2023/04/08 09:09:16;;;;;;;0.93;0.45;;;10.40;99.90;;;;;;5077703;28;20032;-70
2023/04/08 09:11:44;;;;;;;0.47;0.47;;;10.60;99.90;;;;;;5072257;28;20036;-69
2023/04/08 09:14:21;;;;;;;0.10;0.10;;;10.60;99.90;;;;;;5057905;28;20033;-70
2023/04/08 09:16:46;;;;;;;5.97;2.88;;;10.40;99.90;;;;;;5067645;28;20032;-70
2023/04/08 09:19:12;;;;;;;1.05;1.05;;;10.40;99.90;;;;;;5077575;28;20107;-70
2023/04/08 09:21:42;;;;;;;1.23;0.68;;;10.40;99.90;;;;;;5075637;28;20039;-70
2023/04/08 09:24:09;;;;;;;1.95;1.45;;;10.70;99.90;;;;;;5077773;28;20115;-70
2023/04/08 09:26:36;;;;;;;0.10;0.10;;;11.00;99.90;;;;;;5068862;28;20025;-71
2023/04/08 09:29:07;;;;;;;0.10;0.10;;;11.20;99.90;;;;;;5068770;28;20397;-71
2023/04/08 09:31:40;;;;;;;1.70;1.55;;;11.30;99.90;;;;;;5068620;28;20039;-70
2023/04/08 09:34:18;;;;;;;0.20;0.20;;;11.70;99.90;;;;;;5070181;28;20635;-70
2023/04/08 09:36:44;;;;;;;1.98;0.90;;;11.60;99.90;;;;;;5069490;28;20122;-70
2023/04/08 09:39:10;;;;;;;6.10;3.50;;;11.90;99.90;;;;;;5071370;28;20127;-70
2023/04/08 09:41:37;;;;;;;0.10;0.10;;;12.00;99.90;;;;;;5069797;28;20472;-70
2023/04/08 09:44:05;;;;;;;1.20;1.20;;;12.20;99.90;;;;;;5071388;28;20039;-71
2023/04/08 09:46:49;;;;;;;1.08;1.08;;;12.40;99.90;;;;;;5071035;28;20024;-71
2023/04/08 09:49:42;;;;;;;2.13;1.58;;;12.50;99.90;;;;;;5070283;28;20036;-71
2023/04/08 09:52:14;;;;;;;1.13;0.70;;;12.60;99.90;;;;;;5067594;28;20090;-71
2023/04/08 09:54:51;;;;;;;0.13;0.13;;;12.40;99.90;;;;;;5066281;28;20106;-71
2023/04/08 09:57:40;;;;;;;4.53;2.10;;;12.30;99.90;;;;;;5070564;28;20029;-71
2023/04/08 10:00:10;;;;;;;7.53;3.95;;;12.00;99.90;;;;;;5071455;28;20400;-71
2023/04/08 10:02:53;;;;;;;4.15;2.08;;;11.80;99.90;;;;;;5070992;28;20110;-71
2023/04/08 10:05:20;;;;;;;8.18;3.08;;;11.80;99.90;;;;;;5078029;28;20032;-71
2023/04/08 10:07:46;;;;;;;3.03;2.15;;;12.00;99.90;;;;;;5072431;28;20028;-71
2023/04/08 10:10:12;;;;;;;3.80;3.15;;;12.30;99.90;;;;;;5063299;28;20048;-71
2023/04/08 10:12:38;;;;;;;0.20;0.20;;;12.60;99.90;;;;;;5070989;28;20035;-71
2023/04/08 10:15:24;;;;;;;1.25;1.15;;;12.60;99.90;;;;;;5072060;28;20017;-71
2023/04/08 10:18:17;;;;;;;11.05;2.58;;;13.00;99.90;;;;;;5067777;28;20529;-72
2023/04/08 10:20:44;;;;;;;2.20;0.52;;;13.00;99.90;;;;;;5062222;28;20052;-72
2023/04/08 10:23:12;;;;;;;12.23;3.88;;;12.50;99.90;;;;;;5066950;28;20021;-69
2023/04/08 10:25:40;;;;;;;5.93;4.10;;;12.50;99.90;;;;;;5066454;28;20040;-69
2023/04/08 10:28:18;;;;;;;5.22;2.47;;;12.20;99.90;;;;;;5070295;28;20024;-72
2023/04/08 10:30:56;;;;;;;1.08;1.02;;;12.20;99.90;;;;;;5071604;28;20468;-69
2023/04/08 10:33:34;;;;;;;2.15;1.98;;;12.00;99.90;;;;;;5067672;28;20038;-69
2023/04/08 10:36:10;;;;;;;2.45;2.28;;;12.00;99.90;;;;;;5066909;28;20036;-69
2023/04/08 10:38:37;;;;;;;1.17;1.10;;;12.20;99.90;;;;;;5064824;28;20469;-72
2023/04/08 10:41:03;;;;;;;1.55;0.85;;;12.30;99.90;;;;;;5066261;28;20116;-69
2023/04/08 10:43:36;;;;;;;4.50;1.05;;;12.80;99.90;;;;;;5071668;28;20099;-69
2023/04/08 10:46:03;;;;;;;1.13;1.05;;;12.90;99.90;;;;;;5063073;28;20481;-69
2023/04/08 10:48:30;;;;;;;2.35;2.15;;;12.80;99.90;;;;;;5066111;28;20025;-70
2023/04/08 10:51:03;;;;;;;6.03;2.40;;;12.70;99.90;;;;;;5066062;28;20020;-70
2023/04/08 10:53:38;;;;;;;8.20;2.25;;;12.90;99.90;;;;;;5084746;28;20500;-70
2023/04/08 10:56:12;;;;;;;3.10;2.80;;;12.80;99.90;;;;;;5085290;28;20044;-70
2023/04/08 10:58:51;;;;;;;5.07;3.20;;;13.10;99.90;;;;;;5054178;28;20035;-69
2023/04/08 11:01:18;;;;;;;4.25;2.20;;;13.40;99.90;;;;;;5077377;28;20384;-69
2023/04/08 11:03:44;;;;;;;13.60;8.02;;;13.20;99.90;;;;;;5075323;28;20078;-69
2023/04/08 11:06:10;;;;;;;3.17;2.92;;;13.50;99.90;;;;;;5074422;28;20465;-70
2023/04/08 11:08:37;;;;;;;9.20;5.68;;;14.10;99.90;;;;;;5079959;28;20552;-70
2023/04/08 11:11:10;;;;;;;4.18;1.40;;;14.20;99.90;;;;;;5079967;28;20055;-70
2023/04/08 11:13:40;;;;;;;3.60;2.72;;;14.60;99.90;;;;;;5077364;28;20078;-70
2023/04/08 11:16:10;;;;;;;7.95;2.45;;;15.00;99.90;;;;;;5072369;28;20095;-70
2023/04/08 11:18:39;;;;;;;2.35;2.15;;;15.40;99.90;;;;;;5074317;28;20042;-70
2023/04/08 11:21:09;;;;;;;0.75;0.75;;;15.20;99.90;;;;;;5077023;28;20101;-70
2023/04/08 11:23:36;;;;;;;4.35;1.55;;;15.60;99.90;;;;;;5079212;28;20040;-70
2023/04/08 11:26:03;;;;;;;4.95;3.30;;;16.00;99.90;;;;;;5069803;28;20050;-70
2023/04/08 11:28:29;;;;;;;5.32;4.40;;;16.00;99.90;;;;;;5074512;28;20469;-70
2023/04/08 11:30:56;;;;;;;2.65;2.00;;;15.30;99.90;;;;;;5074788;28;20499;-71
2023/04/08 11:33:25;;;;;;;0.40;0.40;;;14.70;99.90;;;;;;5086765;28;20060;-70
2023/04/08 11:35:51;;;;;;;2.45;1.95;;;15.00;99.90;;;;;;5084893;28;20044;-72
2023/04/08 11:38:22;;;;;;;6.45;1.75;;;15.30;99.90;;;;;;5085061;28;20040;-70
2023/04/08 11:40:55;;;;;;;4.70;3.03;;;15.60;99.90;;;;;;5072464;28;20041;-70
2023/04/08 11:43:22;;;;;;;3.63;1.83;;;15.40;99.90;;;;;;5067313;28;20121;-70
2023/04/08 11:45:48;;;;;;;0.55;0.55;;;14.80;99.90;;;;;;5079507;28;20017;-70
2023/04/08 11:48:15;;;;;;;3.83;1.13;;;14.30;99.90;;;;;;5078947;28;20036;-71
2023/04/08 11:50:42;;;;;;;0.82;0.55;;;14.30;99.90;;;;;;5083435;28;20375;-71
2023/04/08 11:53:19;;;;;;;2.15;1.95;;;14.60;99.90;;;;;;5075571;28;20033;-71
2023/04/08 11:55:45;;;;;;;9.90;4.32;;;14.70;99.90;;;;;;5082127;28;20033;-70
2023/04/08 11:58:11;;;;;;;8.00;2.75;;;14.70;99.90;;;;;;5075002;28;20093;-70
2023/04/08 12:00:37;;;;;;;1.60;0.80;;;14.80;99.90;;;;;;5080561;28;20118;-70
2023/04/08 12:03:03;;;;;;;1.55;1.45;;;14.90;99.90;;;;;;5078359;28;20066;-70
2023/04/08 12:05:29;;;;;;;0.30;0.30;;;14.80;99.90;;;;;;5076052;28;20028;-70
2023/04/08 12:07:55;;;;;;;0.90;0.90;;;15.10;99.90;;;;;;5079672;28;20024;-70
2023/04/08 12:10:21;;;;;;;1.85;1.70;;;14.50;99.90;;;;;;5072458;28;20037;-70
2023/04/08 12:12:46;;;;;;;0.70;0.50;;;14.80;99.90;;;;;;5068959;28;20078;-70
2023/04/08 12:15:12;;;;;;;0.65;0.65;;;14.80;99.90;;;;;;5071535;28;20060;-69
2023/04/08 12:17:38;;;;;;;1.15;1.15;;;15.30;99.90;;;;;;5071633;28;20045;-69
2023/04/08 12:20:05;;;;;;;0.43;0.43;;;16.00;99.90;;;;;;5071361;28;20054;-71
2023/04/08 12:22:31;;;;;;;1.75;1.65;;;16.10;99.90;;;;;;5072945;28;20028;-70
2023/04/08 12:24:57;;;;;;;1.33;1.33;;;15.80;99.90;;;;;;5070549;28;20036;-71
2023/04/08 12:27:23;;;;;;;0.30;0.30;;;15.50;99.90;;;;;;5067731;28;20477;-71
2023/04/08 12:29:48;;;;;;;0.10;0.10;;;15.60;99.90;;;;;;5073611;28;20036;-71
2023/04/08 12:32:15;;;;;;;1.50;0.93;;;15.80;99.90;;;;;;5073455;28;20036;-70
2023/04/08 12:34:41;;;;;;;3.33;2.28;;;15.90;99.90;;;;;;5073076;28;20050;-70
2023/04/08 12:37:07;;;;;;;0.20;0.20;;;15.80;99.90;;;;;;5072430;28;20060;-69
2023/04/08 12:39:32;;;;;;;3.60;2.38;;;15.80;99.90;;;;;;5066546;28;20075;-69
2023/04/08 12:41:58;;;;;;;5.22;4.13;;;14.80;99.90;;;;;;5072813;28;20025;-70
2023/04/08 12:44:24;;;;;;;2.08;1.55;;;14.30;99.90;;;;;;5067649;28;20035;-69
2023/04/08 12:46:50;;;;;;;4.63;2.63;;;15.10;99.90;;;;;;5072358;28;20048;-71
2023/04/08 12:49:16;;;;;;;1.10;1.00;;;15.90;99.90;;;;;;5072913;28;20027;-69
2023/04/08 12:51:41;;;;;;;0.60;0.50;;;17.50;99.90;;;;;;5072649;28;20461;-69
2023/04/08 12:54:07;;;;;;;5.28;2.58;;;19.30;99.90;;;;;;5078995;28;20499;-70
2023/04/08 12:56:33;;;;;;;2.13;1.92;;;20.40;98.50;;;;;;5073470;28;20400;-69